createdAt,value
2023-03-02T00:02:01.775Z,2.40
2023-03-02T00:04:39.828Z,2.40
2023-03-02T00:07:09.422Z,2.40
2023-03-02T00:09:36.875Z,2.40
2023-03-02T00:12:04.825Z,2.30
2023-03-02T00:14:31.428Z,2.30
2023-03-02T00:16:58.148Z,2.40
2023-03-02T00:19:24.582Z,2.40
2023-03-02T00:21:51.069Z,2.40
2023-03-02T00:24:17.570Z,2.30
2023-03-02T00:26:44.054Z,2.20
2023-03-02T00:29:11.445Z,2.20
2023-03-02T00:31:38.480Z,2.20
2023-03-02T00:34:05.016Z,2.20
2023-03-02T00:36:31.455Z,2.20
2023-03-02T00:38:57.867Z,2.20
2023-03-02T00:41:24.400Z,2.20
2023-03-02T00:43:51.343Z,2.30
2023-03-02T00:46:20.389Z,2.30
2023-03-02T00:48:47.004Z,2.30
2023-03-02T00:51:14.800Z,2.30
2023-03-02T00:53:41.629Z,2.30
2023-03-02T00:56:09.630Z,2.40
2023-03-02T00:58:40.525Z,2.30
2023-03-02T01:01:10.442Z,2.30
2023-03-02T01:03:40.067Z,2.30
2023-03-02T01:06:15.090Z,2.30
2023-03-02T01:08:41.609Z,2.40
2023-03-02T01:11:19.572Z,2.30
2023-03-02T01:13:46.161Z,2.30
2023-03-02T01:16:13.644Z,2.30
2023-03-02T01:18:40.218Z,2.20
2023-03-02T01:21:10.350Z,2.20
2023-03-02T01:23:37.248Z,2.20
2023-03-02T01:26:04.074Z,2.20
2023-03-02T01:28:30.594Z,2.20
2023-03-02T01:30:58.187Z,2.20
2023-03-02T01:33:24.715Z,2.00
2023-03-02T01:35:51.293Z,2.00
2023-03-02T01:38:17.847Z,2.00
2023-03-02T01:40:44.398Z,2.00
2023-03-02T01:43:14.953Z,2.00
2023-03-02T01:45:48.305Z,2.00
2023-03-02T01:48:25.930Z,2.00
2023-03-02T01:50:53.232Z,1.90
2023-03-02T01:53:20.837Z,1.90
2023-03-02T01:55:47.884Z,2.00
2023-03-02T01:58:16.609Z,2.00
2023-03-02T02:00:47.195Z,2.00
2023-03-02T02:03:20.950Z,2.00
2023-03-02T02:06:08.898Z,2.00
2023-03-02T02:08:37.409Z,1.90
2023-03-02T02:11:05.112Z,1.90
2023-03-02T02:13:32.309Z,2.00
2023-03-02T02:15:58.807Z,2.00
2023-03-02T02:18:26.154Z,2.00
2023-03-02T02:20:55.425Z,2.10
2023-03-02T02:23:28.708Z,2.20
2023-03-02T02:25:58.322Z,2.20
2023-03-02T02:28:48.221Z,2.20
2023-03-02T02:31:22.736Z,2.20
2023-03-02T02:33:52.762Z,2.10
2023-03-02T02:36:23.128Z,2.10
2023-03-02T02:38:53.267Z,2.00
2023-03-02T02:41:31.506Z,2.00
2023-03-02T02:43:58.469Z,2.00
2023-03-02T02:46:25.648Z,2.00
2023-03-02T02:48:53.650Z,1.90
2023-03-02T02:51:26.977Z,1.80
2023-03-02T02:53:59.772Z,1.80
2023-03-02T02:56:33.684Z,1.70
2023-03-02T02:59:06.282Z,1.70
2023-03-02T03:01:34.046Z,1.70
2023-03-02T03:04:04.818Z,1.70
2023-03-02T03:06:38.225Z,1.70
2023-03-02T03:09:07.260Z,1.70
2023-03-02T03:11:43.600Z,1.70
2023-03-02T03:14:16.386Z,1.60
2023-03-02T03:16:47.169Z,1.70
2023-03-02T03:19:21.174Z,1.70
2023-03-02T03:21:50.822Z,1.50
2023-03-02T03:24:18.308Z,1.50
2023-03-02T03:26:46.201Z,1.40
2023-03-02T03:29:14.652Z,1.40
2023-03-02T03:31:41.711Z,1.40
2023-03-02T03:34:09.462Z,1.30
2023-03-02T03:36:37.498Z,1.30
2023-03-02T03:39:05.643Z,1.30
2023-03-02T03:41:33.126Z,1.40
2023-03-02T03:43:59.613Z,1.40
2023-03-02T03:46:28.859Z,1.30
2023-03-02T03:48:55.589Z,1.30
2023-03-02T03:51:22.303Z,1.30
2023-03-02T03:53:59.675Z,1.40
2023-03-02T03:56:31.999Z,1.50
2023-03-02T03:59:08.759Z,1.40
2023-03-02T04:01:50.197Z,1.40
2023-03-02T04:04:23.511Z,1.50
2023-03-02T04:06:51.560Z,1.50
2023-03-02T04:09:19.216Z,1.50
2023-03-02T04:11:48.595Z,1.40
2023-03-02T04:14:16.376Z,1.40
2023-03-02T04:16:43.314Z,1.40
2023-03-02T04:19:11.052Z,1.40
2023-03-02T04:21:42.612Z,1.40
2023-03-02T04:24:09.935Z,1.40
2023-03-02T04:26:39.002Z,1.30
2023-03-02T04:29:06.746Z,1.30
2023-03-02T04:31:34.673Z,1.30
2023-03-02T04:34:04.072Z,1.30
2023-03-02T04:36:33.652Z,1.30
2023-03-02T04:39:03.505Z,1.20
2023-03-02T04:41:30.040Z,1.10
2023-03-02T04:43:56.851Z,1.10
2023-03-02T04:46:26.291Z,1.10
2023-03-02T04:48:53.573Z,1.00
2023-03-02T04:51:26.820Z,1.00
2023-03-02T04:53:59.136Z,1.00
2023-03-02T04:56:26.117Z,0.90
2023-03-02T04:58:52.616Z,0.80
2023-03-02T05:01:19.767Z,0.90
2023-03-02T05:03:46.326Z,0.90
2023-03-02T05:06:14.586Z,1.00
2023-03-02T05:08:41.179Z,1.10
2023-03-02T05:11:08.217Z,1.10
2023-03-02T05:13:35.254Z,1.10
2023-03-02T05:16:01.773Z,1.20
2023-03-02T05:18:28.286Z,1.30
2023-03-02T05:20:55.218Z,1.30
2023-03-02T05:23:25.998Z,1.30
2023-03-02T05:25:54.784Z,1.30
2023-03-02T05:28:25.891Z,1.30
2023-03-02T05:30:52.874Z,1.30
2023-03-02T05:33:19.964Z,1.40
2023-03-02T05:35:47.014Z,1.40
2023-03-02T05:38:14.004Z,1.40
2023-03-02T05:40:42.294Z,1.30
2023-03-02T05:43:10.362Z,1.30
2023-03-02T05:45:38.484Z,1.30
2023-03-02T05:48:05.506Z,1.30
2023-03-02T05:50:33.102Z,1.30
2023-03-02T05:53:02.348Z,1.30
2023-03-02T05:55:29.350Z,1.30
2023-03-02T05:57:56.132Z,1.30
2023-03-02T06:00:23.178Z,1.30
2023-03-02T06:02:49.622Z,1.30
2023-03-02T06:05:18.584Z,1.30
2023-03-02T06:07:45.765Z,1.20
2023-03-02T06:10:13.213Z,1.20
2023-03-02T06:12:40.404Z,1.20
2023-03-02T06:15:07.510Z,1.20
2023-03-02T06:17:34.152Z,1.30
2023-03-02T06:20:00.594Z,1.30
2023-03-02T06:22:27.155Z,1.30
2023-03-02T06:24:55.208Z,1.40
2023-03-02T06:27:21.709Z,1.50
2023-03-02T06:29:48.127Z,1.50
2023-03-02T06:32:14.710Z,1.50
2023-03-02T06:34:41.283Z,1.50
2023-03-02T06:37:07.713Z,1.50
2023-03-02T06:39:34.575Z,1.50
2023-03-02T06:42:00.992Z,1.60
2023-03-02T06:44:27.426Z,1.60
2023-03-02T06:46:53.851Z,1.60
2023-03-02T06:49:20.307Z,1.60
2023-03-02T06:51:46.789Z,1.60
2023-03-02T06:54:13.714Z,1.60
2023-03-02T06:56:41.173Z,1.80
2023-03-02T06:59:07.671Z,1.90
2023-03-02T07:01:36.176Z,1.90
2023-03-02T07:04:03.304Z,2.00
2023-03-02T07:06:29.793Z,2.00
2023-03-02T07:08:56.236Z,2.00
2023-03-02T07:11:22.693Z,2.00
2023-03-02T07:13:49.698Z,2.00
2023-03-02T07:16:16.410Z,2.10
2023-03-02T07:18:42.975Z,2.20
2023-03-02T07:21:09.484Z,2.30
2023-03-02T07:23:36.184Z,2.30
2023-03-02T07:26:02.652Z,2.30
2023-03-02T07:28:29.096Z,2.30
2023-03-02T07:30:55.568Z,2.40
2023-03-02T07:33:22.451Z,2.50
2023-03-02T07:35:49.026Z,2.70
2023-03-02T07:38:15.602Z,2.70
2023-03-02T07:40:42.929Z,2.60
2023-03-02T07:43:10.034Z,2.60
2023-03-02T07:45:38.128Z,2.70
2023-03-02T07:48:05.238Z,2.70
2023-03-02T07:50:32.285Z,2.70
2023-03-02T07:53:00.037Z,2.60
2023-03-02T07:55:26.828Z,2.70
2023-03-02T07:57:53.331Z,2.70
2023-03-02T08:00:20.955Z,2.70
2023-03-02T08:02:47.637Z,2.60
2023-03-02T08:05:14.179Z,2.60
2023-03-02T08:07:40.865Z,2.60
2023-03-02T08:10:07.922Z,2.70
2023-03-02T08:12:34.597Z,2.70
2023-03-02T08:15:03.053Z,2.80
2023-03-02T08:17:30.102Z,2.80
2023-03-02T08:19:56.516Z,2.80
2023-03-02T08:22:22.995Z,2.80
2023-03-02T08:24:49.442Z,2.80
2023-03-02T08:27:16.167Z,2.80
2023-03-02T08:29:42.605Z,2.90
2023-03-02T08:32:09.742Z,3.00
2023-03-02T08:34:36.378Z,3.10
2023-03-02T08:37:02.828Z,3.10
2023-03-02T08:39:31.204Z,3.20
2023-03-02T08:41:58.086Z,3.20
2023-03-02T08:44:24.590Z,3.30
2023-03-02T08:46:51.692Z,3.40
2023-03-02T08:49:19.224Z,3.50
2023-03-02T08:51:46.728Z,3.60
2023-03-02T08:54:13.493Z,3.70
2023-03-02T08:56:40.258Z,3.80
2023-03-02T08:59:11.580Z,4.00
2023-03-02T09:01:39.867Z,4.20
2023-03-02T09:04:08.349Z,4.30
2023-03-02T09:06:38.242Z,4.40
2023-03-02T09:09:05.583Z,4.50
2023-03-02T09:11:33.042Z,4.80
2023-03-02T09:13:59.762Z,5.00
2023-03-02T09:16:26.376Z,5.10
2023-03-02T09:18:53.656Z,5.30
2023-03-02T09:21:20.518Z,5.30
2023-03-02T09:23:47.196Z,5.40
2023-03-02T09:26:13.873Z,5.60
2023-03-02T09:28:40.347Z,5.60
2023-03-02T09:31:08.439Z,5.70
2023-03-02T09:33:35.622Z,5.80
2023-03-02T09:36:09.396Z,6.00
2023-03-02T09:38:36.011Z,6.00
2023-03-02T09:41:20.987Z,6.10
2023-03-02T09:44:02.421Z,6.20
2023-03-02T09:46:47.483Z,6.30
2023-03-02T09:49:32.640Z,6.30
2023-03-02T09:52:20.918Z,6.50
2023-03-02T09:54:47.888Z,6.50
2023-03-02T09:57:20.183Z,6.60
2023-03-02T09:59:52.850Z,6.70
2023-03-02T10:02:37.420Z,6.80
2023-03-02T10:05:08.534Z,6.90
2023-03-02T10:07:38.864Z,7.00
2023-03-02T10:10:29.092Z,7.20
2023-03-02T10:13:01.300Z,7.40
2023-03-02T10:15:51.748Z,7.50
2023-03-02T10:18:24.037Z,7.50
2023-03-02T10:21:00.579Z,7.50
2023-03-02T10:23:38.946Z,7.60
2023-03-02T10:26:37.672Z,7.70
2023-03-02T10:29:33.667Z,7.90
2023-03-02T10:32:10.533Z,7.90
2023-03-02T10:34:38.107Z,8.10
2023-03-02T10:37:14.437Z,8.20
2023-03-02T10:39:40.985Z,8.20
2023-03-02T10:42:15.094Z,8.30
2023-03-02T10:44:48.320Z,8.50
2023-03-02T10:47:26.883Z,8.50
2023-03-02T10:49:55.147Z,8.60
2023-03-02T10:52:26.706Z,8.70
2023-03-02T10:55:13.298Z,8.90
2023-03-02T10:57:41.990Z,8.80
2023-03-02T11:00:21.672Z,8.90
2023-03-02T11:02:54.004Z,9.00
2023-03-02T11:05:22.599Z,9.00
2023-03-02T11:07:58.884Z,9.20
2023-03-02T11:10:27.530Z,9.20
2023-03-02T11:12:54.083Z,9.30
2023-03-02T11:15:27.374Z,9.40
2023-03-02T11:18:08.363Z,9.60
2023-03-02T11:20:39.581Z,9.70
2023-03-02T11:23:22.426Z,9.70
2023-03-02T11:25:59.094Z,9.70
2023-03-02T11:28:34.438Z,9.80
2023-03-02T11:31:04.482Z,9.80
2023-03-02T11:33:56.166Z,9.90
2023-03-02T11:36:39.725Z,10.00
2023-03-02T11:39:12.382Z,10.00
2023-03-02T11:41:39.132Z,10.00
2023-03-02T11:44:20.185Z,10.00
2023-03-02T11:46:51.163Z,10.00
2023-03-02T11:49:31.948Z,10.10
2023-03-02T11:52:00.602Z,10.30
2023-03-02T11:54:41.094Z,10.30
2023-03-02T11:57:21.315Z,10.40
2023-03-02T11:59:50.227Z,10.40
2023-03-02T12:02:17.187Z,10.30
2023-03-02T12:04:43.966Z,10.50
2023-03-02T12:07:18.413Z,10.60
2023-03-02T12:09:44.962Z,10.70
2023-03-02T12:12:34.361Z,10.70
2023-03-02T12:15:01.576Z,10.60
2023-03-02T12:17:28.062Z,10.70
2023-03-02T12:20:09.013Z,10.70
2023-03-02T12:22:37.484Z,10.70
2023-03-02T12:25:18.561Z,10.70
2023-03-02T12:27:47.929Z,10.90
2023-03-02T12:30:23.518Z,11.10
2023-03-02T12:33:17.808Z,11.10
2023-03-02T12:35:45.510Z,11.00
2023-03-02T12:38:24.766Z,11.10
2023-03-02T12:41:10.020Z,11.10
2023-03-02T12:43:38.347Z,11.20
2023-03-02T12:46:26.990Z,11.20
2023-03-02T12:49:16.526Z,11.30
2023-03-02T12:51:57.790Z,11.40
2023-03-02T12:54:33.108Z,11.30
2023-03-02T12:57:14.028Z,11.30
2023-03-02T12:59:40.889Z,11.40
2023-03-02T13:02:20.957Z,11.50
2023-03-02T13:04:58.979Z,11.60
2023-03-02T13:07:29.648Z,11.60
2023-03-02T13:09:58.561Z,11.70
2023-03-02T13:12:29.322Z,11.80
2023-03-02T13:14:58.212Z,11.80
2023-03-02T13:17:33.165Z,11.90
2023-03-02T13:20:04.478Z,11.90
2023-03-02T13:22:31.238Z,11.80
2023-03-02T13:25:07.992Z,11.90
2023-03-02T13:27:34.901Z,12.00
2023-03-02T13:30:12.691Z,11.90
2023-03-02T13:32:42.084Z,11.90
2023-03-02T13:35:26.437Z,12.00
2023-03-02T13:38:01.069Z,12.00
2023-03-02T13:40:27.550Z,12.00
2023-03-02T13:42:54.464Z,12.00
2023-03-02T13:45:28.124Z,12.00
2023-03-02T13:47:56.277Z,12.10
2023-03-02T13:50:31.841Z,12.10
2023-03-02T13:53:02.491Z,12.10
2023-03-02T13:55:29.478Z,12.10
2023-03-02T13:57:56.537Z,12.00
2023-03-02T14:00:30.899Z,12.00
2023-03-02T14:02:57.397Z,12.00
2023-03-02T14:05:26.987Z,12.10
2023-03-02T14:07:56.302Z,12.00
2023-03-02T14:10:22.860Z,12.00
2023-03-02T14:13:06.083Z,12.10
2023-03-02T14:15:33.001Z,12.00
2023-03-02T14:18:26.069Z,12.00
2023-03-02T14:20:52.785Z,12.00
2023-03-02T14:23:19.400Z,12.00
2023-03-02T14:25:46.256Z,12.10
2023-03-02T14:28:18.985Z,12.00
2023-03-02T14:30:46.626Z,12.00
2023-03-02T14:33:17.592Z,12.00
2023-03-02T14:35:44.552Z,11.90
2023-03-02T14:38:11.773Z,12.00
2023-03-02T14:40:38.465Z,12.10
2023-03-02T14:43:05.265Z,12.00
2023-03-02T14:45:32.069Z,12.00
2023-03-02T14:47:58.637Z,12.00
2023-03-02T14:50:25.223Z,12.00
2023-03-02T14:52:55.292Z,12.00
2023-03-02T14:55:26.340Z,12.10
2023-03-02T14:57:57.276Z,12.10
2023-03-02T15:00:24.933Z,12.00
2023-03-02T15:02:51.693Z,11.90
2023-03-02T15:05:18.757Z,11.90
2023-03-02T15:07:46.038Z,11.80
2023-03-02T15:10:16.007Z,11.80
2023-03-02T15:12:42.574Z,11.80
2023-03-02T15:15:10.125Z,11.80
2023-03-02T15:17:36.698Z,11.80
2023-03-02T15:20:04.005Z,11.70
2023-03-02T15:22:30.522Z,11.80
2023-03-02T15:24:57.272Z,11.80
2023-03-02T15:27:23.837Z,11.80
2023-03-02T15:29:50.814Z,11.70
2023-03-02T15:32:17.768Z,11.70
2023-03-02T15:34:44.406Z,11.70
2023-03-02T15:37:11.817Z,11.80
2023-03-02T15:39:38.736Z,11.70
2023-03-02T15:42:05.881Z,11.70
2023-03-02T15:44:33.421Z,11.80
2023-03-02T15:47:01.151Z,11.80
2023-03-02T15:49:29.318Z,11.70
2023-03-02T15:51:59.902Z,11.70
2023-03-02T15:54:27.626Z,11.70
2023-03-02T15:56:54.502Z,11.70
2023-03-02T15:59:23.222Z,11.70
2023-03-02T16:01:49.783Z,11.70
2023-03-02T16:04:16.575Z,11.70
2023-03-02T16:06:43.347Z,11.60
2023-03-02T16:09:09.993Z,11.60
2023-03-02T16:11:37.234Z,11.50
2023-03-02T16:14:04.195Z,11.40
2023-03-02T16:16:30.794Z,11.30
2023-03-02T16:18:58.551Z,11.20
2023-03-02T16:21:26.742Z,11.10
2023-03-02T16:23:53.999Z,11.10
2023-03-02T16:26:21.932Z,11.00
2023-03-02T16:28:48.913Z,11.00
2023-03-02T16:31:19.768Z,11.00
2023-03-02T16:33:47.303Z,11.00
2023-03-02T16:36:14.664Z,10.90
2023-03-02T16:38:41.273Z,10.90
2023-03-02T16:41:13.889Z,10.90
2023-03-02T16:43:49.462Z,10.80
2023-03-02T16:46:16.983Z,10.70
2023-03-02T16:48:44.765Z,10.70
2023-03-02T16:51:11.440Z,10.70
2023-03-02T16:53:38.304Z,10.60
2023-03-02T16:56:05.093Z,10.60
2023-03-02T16:58:31.571Z,10.60
2023-03-02T17:01:01.797Z,10.60
2023-03-02T17:03:28.563Z,10.50
2023-03-02T17:05:55.057Z,10.50
2023-03-02T17:08:21.508Z,10.40
2023-03-02T17:10:48.034Z,10.30
2023-03-02T17:13:16.491Z,10.30
2023-03-02T17:15:43.484Z,10.20
2023-03-02T17:18:10.642Z,10.20
2023-03-02T17:20:37.839Z,10.20
2023-03-02T17:23:04.614Z,10.20
2023-03-02T17:25:31.209Z,10.10
2023-03-02T17:27:57.777Z,10.10
2023-03-02T17:30:24.291Z,10.00
2023-03-02T17:32:50.947Z,10.00
2023-03-02T17:35:17.478Z,9.90
2023-03-02T17:37:44.035Z,10.00
2023-03-02T17:40:13.474Z,9.90
2023-03-02T17:42:40.120Z,9.90
2023-03-02T17:45:07.777Z,9.80
2023-03-02T17:47:34.973Z,9.80
2023-03-02T17:50:03.820Z,9.80
2023-03-02T17:52:30.460Z,9.70
2023-03-02T17:54:56.989Z,9.70
2023-03-02T17:57:24.499Z,9.70
2023-03-02T17:59:51.220Z,9.70
2023-03-02T18:02:18.613Z,9.60
2023-03-02T18:04:45.630Z,9.60
2023-03-02T18:07:14.116Z,9.40
2023-03-02T18:09:40.608Z,9.40
2023-03-02T18:12:07.745Z,9.30
2023-03-02T18:14:35.572Z,9.30
2023-03-02T18:17:05.042Z,9.20
2023-03-02T18:19:31.686Z,9.10
2023-03-02T18:21:58.244Z,8.90
2023-03-02T18:24:24.856Z,8.80
2023-03-02T18:26:51.343Z,8.80
2023-03-02T18:29:18.014Z,8.70
2023-03-02T18:31:45.139Z,8.60
2023-03-02T18:34:11.738Z,8.50
2023-03-02T18:36:38.265Z,8.40
2023-03-02T18:39:04.819Z,8.20
2023-03-02T18:41:32.386Z,8.20
2023-03-02T18:44:01.300Z,8.20
2023-03-02T18:46:30.286Z,8.20
2023-03-02T18:48:57.699Z,8.20
2023-03-02T18:51:25.044Z,8.20
2023-03-02T18:53:52.047Z,8.20
2023-03-02T18:56:19.091Z,8.10
2023-03-02T18:58:45.760Z,8.00
2023-03-02T19:01:12.410Z,8.00
2023-03-02T19:03:40.008Z,7.90
2023-03-02T19:06:07.259Z,7.90
2023-03-02T19:08:35.637Z,7.80
2023-03-02T19:11:03.195Z,7.80
2023-03-02T19:13:29.693Z,7.70
2023-03-02T19:15:56.370Z,7.60
2023-03-02T19:18:24.700Z,7.50
2023-03-02T19:20:54.139Z,7.40
2023-03-02T19:23:20.675Z,7.20
2023-03-02T19:25:47.167Z,7.20
2023-03-02T19:28:13.974Z,7.00
2023-03-02T19:30:40.674Z,7.00
2023-03-02T19:33:09.214Z,7.00
2023-03-02T19:35:37.542Z,6.90
2023-03-02T19:38:04.806Z,6.90
2023-03-02T19:40:32.022Z,6.90
2023-03-02T19:42:58.598Z,7.00
2023-03-02T19:45:29.132Z,7.00
2023-03-02T19:47:57.821Z,6.80
2023-03-02T19:50:25.499Z,6.80
2023-03-02T19:52:54.767Z,6.80
2023-03-02T19:55:22.733Z,6.70
2023-03-02T19:57:55.613Z,6.60
2023-03-02T20:00:23.564Z,6.50
2023-03-02T20:02:50.150Z,6.40
2023-03-02T20:05:16.833Z,6.30
2023-03-02T20:07:43.370Z,6.10
2023-03-02T20:10:11.137Z,6.00
2023-03-02T20:12:37.925Z,5.90
2023-03-02T20:15:05.992Z,5.90
2023-03-02T20:17:33.782Z,5.80
2023-03-02T20:20:01.248Z,5.80
2023-03-02T20:22:27.979Z,5.80
2023-03-02T20:24:54.519Z,5.70
2023-03-02T20:27:21.204Z,5.80
2023-03-02T20:29:48.243Z,5.80
2023-03-02T20:32:15.918Z,5.70
2023-03-02T20:34:43.834Z,5.70
2023-03-02T20:37:13.518Z,5.60
2023-03-02T20:39:42.261Z,5.60
2023-03-02T20:42:09.461Z,5.60
2023-03-02T20:44:36.133Z,5.50
2023-03-02T20:47:08.386Z,5.50
2023-03-02T20:49:37.076Z,5.50
2023-03-02T20:52:05.435Z,5.50
2023-03-02T20:54:36.035Z,5.40
2023-03-02T20:57:02.614Z,5.40
2023-03-02T20:59:29.817Z,5.40
2023-03-02T21:01:56.472Z,5.30
2023-03-02T21:04:23.143Z,5.20
2023-03-02T21:06:50.009Z,5.10
2023-03-02T21:09:20.749Z,5.00
2023-03-02T21:11:47.443Z,4.90
2023-03-02T21:14:14.459Z,4.80
2023-03-02T21:16:42.879Z,4.80
2023-03-02T21:19:14.802Z,4.70
2023-03-02T21:21:42.584Z,4.70
2023-03-02T21:24:18.104Z,4.70
2023-03-02T21:26:46.466Z,4.50
2023-03-02T21:29:13.923Z,4.50
2023-03-02T21:31:42.518Z,4.40
2023-03-02T21:34:09.856Z,4.50
2023-03-02T21:36:36.711Z,4.40
2023-03-02T21:39:06.778Z,4.40
2023-03-02T21:41:35.778Z,4.50
2023-03-02T21:44:05.400Z,4.40
2023-03-02T21:46:33.784Z,4.30
2023-03-02T21:49:00.309Z,4.20
2023-03-02T21:51:26.910Z,4.20
2023-03-02T21:53:53.537Z,4.10
2023-03-02T21:56:22.995Z,4.10
2023-03-02T21:58:55.493Z,4.00
2023-03-02T22:01:23.017Z,3.90
2023-03-02T22:03:50.319Z,3.90
2023-03-02T22:06:19.871Z,3.90
2023-03-02T22:08:46.416Z,3.80
2023-03-02T22:11:22.506Z,3.90
2023-03-02T22:13:50.845Z,4.00
2023-03-02T22:16:20.736Z,3.90
2023-03-02T22:18:49.459Z,3.70
2023-03-02T22:21:46.796Z,3.60
2023-03-02T22:24:41.122Z,3.60
2023-03-02T22:27:21.351Z,3.60
2023-03-02T22:29:48.816Z,3.50
2023-03-02T22:32:18.047Z,3.50
2023-03-02T22:34:46.266Z,3.50
2023-03-02T22:37:15.205Z,3.40
2023-03-02T22:39:42.357Z,3.40
2023-03-02T22:42:19.016Z,3.40
2023-03-02T22:45:02.131Z,3.50
2023-03-02T22:47:28.770Z,3.50
2023-03-02T22:50:01.694Z,3.40
2023-03-02T22:52:39.190Z,3.30
2023-03-02T22:55:39.386Z,3.30
2023-03-02T22:58:28.898Z,3.30
2023-03-02T23:00:59.619Z,3.30
2023-03-02T23:03:47.808Z,3.30
2023-03-02T23:06:24.726Z,3.30
2023-03-02T23:08:57.391Z,3.20
2023-03-02T23:11:24.862Z,3.10
2023-03-02T23:13:52.925Z,3.10
2023-03-02T23:16:23.971Z,3.20
2023-03-02T23:18:51.847Z,3.20
2023-03-02T23:21:28.325Z,3.10
2023-03-02T23:23:55.632Z,2.90
2023-03-02T23:26:22.408Z,2.90
2023-03-02T23:28:50.628Z,2.90
2023-03-02T23:31:18.391Z,2.90
2023-03-02T23:33:45.591Z,2.90
2023-03-02T23:36:13.638Z,2.90
2023-03-02T23:38:41.057Z,2.90
2023-03-02T23:41:08.720Z,2.80
2023-03-02T23:43:35.660Z,2.80
2023-03-02T23:46:02.289Z,2.80
2023-03-02T23:48:28.859Z,2.70
2023-03-02T23:50:55.342Z,2.60
2023-03-02T23:53:21.793Z,2.40
2023-03-02T23:55:50.117Z,2.30
2023-03-02T23:58:17.372Z,2.30
